Terminal Aerodrome Forecast
Issued by NWS Detroit/Pontiac, MI

Home | Current Version | Previous Version | Text Only | Print | Product List | Glossary On
Versions: 1 2 3 4 5 6 7 8 9 10 11 12 13
000
FTUS43 KDTX 192300
TAFFNT
TAF
KFNT 192322Z 2000/2024 17006KT P6SM BKN250
     FM200400 21009KT P6SM SCT150 BKN250
     FM201500 23014G25KT P6SM SCT040 BKN120
     FM202100 23012KT 6SM SHRA BKN040 OVC060=

USA.gov is the U.S. government's official web portal to all federal, state and local government web resources and services.